aviador You're here:

PATO Decoded Metar

PORTAGE GLACIER in AK, USA
Report Time2018-05-23 17:53:00
UTC Time2018-05-23 18:43:31
Flight Rules mvfr MVFR
Wind120° at 07 kt
W.Rank120° ranks 3
Current wind is below 120° avg. (10.3)
Visibility9999 m
Phenomena:N/A
Clouds:Broken 026 Hf
Overcast 035 Hf
Expected CloudBase > 1,600 ft AGL from Temp-Dew spread
Ceiling2,600 ft
Temp07°C (ISA -8)
Dew Point03°C (76% RH)
AAT3.0°C
QNH1012 hPa
Density Alt-699 ft
Elevation102 ft
Report Wrong Elevation
Raw Report
PATO 231753Z AUTO 12007KT 090V180 10SM BKN026 OVC035 07/03 A2988
RMK AO2 RAE48 SLP119 P0000 60006 T00720033 10078 20056 56001
TSNO=

Extra information for PATO:More info

Metar Taf Metar & Taf Last 4 Metars F.Rules Stats Wind Profile Meteogram Temp Stats Airport Information Weather charts Add Link Nearby VenuesMetar ALERT Operation Metar Decoded Social comments

AIRNAV info for PATO